sensor_id;sensor_type;location;lat;lon;timestamp;temperature;humidity
12588;DHT22;6359;51.450;7.346;2022-07-23T00:01:19;16.00;99.90
12588;DHT22;6359;51.450;7.346;2022-07-23T00:03:46;15.90;99.90
12588;DHT22;6359;51.450;7.346;2022-07-23T00:06:13;16.00;99.90
12588;DHT22;6359;51.450;7.346;2022-07-23T00:08:41;16.00;99.90
12588;DHT22;6359;51.450;7.346;2022-07-23T00:11:08;15.90;99.90
12588;DHT22;6359;51.450;7.346;2022-07-23T00:13:35;15.90;99.90
12588;DHT22;6359;51.450;7.346;2022-07-23T00:16:02;15.80;99.90
12588;DHT22;6359;51.450;7.346;2022-07-23T00:18:30;15.80;99.90
12588;DHT22;6359;51.450;7.346;2022-07-23T00:20:56;15.80;99.90
12588;DHT22;6359;51.450;7.346;2022-07-23T00:23:24;15.80;99.90
12588;DHT22;6359;51.450;7.346;2022-07-23T00:25:53;15.80;99.90
12588;DHT22;6359;51.450;7.346;2022-07-23T00:28:20;15.70;99.90
12588;DHT22;6359;51.450;7.346;2022-07-23T00:30:47;15.80;99.90
12588;DHT22;6359;51.450;7.346;2022-07-23T00:33:13;15.80;99.90
12588;DHT22;6359;51.450;7.346;2022-07-23T00:35:41;15.80;99.90
12588;DHT22;6359;51.450;7.346;2022-07-23T00:38:09;15.80;99.90
12588;DHT22;6359;51.450;7.346;2022-07-23T00:40:36;15.80;99.90
12588;DHT22;6359;51.450;7.346;2022-07-23T00:43:05;15.80;99.90
12588;DHT22;6359;51.450;7.346;2022-07-23T00:45:32;15.80;99.90
12588;DHT22;6359;51.450;7.346;2022-07-23T00:47:59;15.80;99.90
12588;DHT22;6359;51.450;7.346;2022-07-23T00:50:26;15.70;99.90
12588;DHT22;6359;51.450;7.346;2022-07-23T00:52:54;15.70;99.90
12588;DHT22;6359;51.450;7.346;2022-07-23T00:55:21;15.70;99.90
12588;DHT22;6359;51.450;7.346;2022-07-23T00:57:48;15.70;99.90
12588;DHT22;6359;51.450;7.346;2022-07-23T01:00:17;15.70;99.90
12588;DHT22;6359;51.450;7.346;2022-07-23T01:02:45;15.60;99.90
12588;DHT22;6359;51.450;7.346;2022-07-23T01:05:11;15.70;99.90
12588;DHT22;6359;51.450;7.346;2022-07-23T01:07:38;15.60;99.90
12588;DHT22;6359;51.450;7.346;2022-07-23T01:10:06;15.60;99.90
12588;DHT22;6359;51.450;7.346;2022-07-23T01:12:54;15.50;99.90
12588;DHT22;6359;51.450;7.346;2022-07-23T01:15:22;15.50;99.90
12588;DHT22;6359;51.450;7.346;2022-07-23T01:17:49;15.50;99.90
12588;DHT22;6359;51.450;7.346;2022-07-23T01:20:17;15.50;99.90
12588;DHT22;6359;51.450;7.346;2022-07-23T01:22:45;15.50;99.90
12588;DHT22;6359;51.450;7.346;2022-07-23T01:25:13;15.50;99.90
12588;DHT22;6359;51.450;7.346;2022-07-23T01:27:40;15.50;99.90
12588;DHT22;6359;51.450;7.346;2022-07-23T01:30:09;15.50;99.90
12588;DHT22;6359;51.450;7.346;2022-07-23T01:32:36;15.50;99.90
12588;DHT22;6359;51.450;7.346;2022-07-23T01:35:04;15.50;99.90
12588;DHT22;6359;51.450;7.346;2022-07-23T01:37:31;15.40;99.90
12588;DHT22;6359;51.450;7.346;2022-07-23T01:39:59;15.40;99.90
12588;DHT22;6359;51.450;7.346;2022-07-23T01:42:26;15.50;99.90
12588;DHT22;6359;51.450;7.346;2022-07-23T01:44:53;15.40;99.90
12588;DHT22;6359;51.450;7.346;2022-07-23T01:47:20;15.40;99.90
12588;DHT22;6359;51.450;7.346;2022-07-23T01:49:47;15.50;99.90
12588;DHT22;6359;51.450;7.346;2022-07-23T01:52:14;15.40;99.90
12588;DHT22;6359;51.450;7.346;2022-07-23T01:54:42;15.50;99.90
12588;DHT22;6359;51.450;7.346;2022-07-23T01:57:10;15.40;99.90
12588;DHT22;6359;51.450;7.346;2022-07-23T01:59:37;15.30;99.90
12588;DHT22;6359;51.450;7.346;2022-07-23T02:02:04;15.30;99.90
12588;DHT22;6359;51.450;7.346;2022-07-23T02:04:31;15.30;99.90
12588;DHT22;6359;51.450;7.346;2022-07-23T02:07:00;15.40;99.90
12588;DHT22;6359;51.450;7.346;2022-07-23T02:09:27;15.40;99.90
12588;DHT22;6359;51.450;7.346;2022-07-23T02:11:54;15.50;99.90
12588;DHT22;6359;51.450;7.346;2022-07-23T02:14:23;15.50;99.90
12588;DHT22;6359;51.450;7.346;2022-07-23T02:16:50;15.50;99.90
12588;DHT22;6359;51.450;7.346;2022-07-23T02:19:16;15.40;99.90
12588;DHT22;6359;51.450;7.346;2022-07-23T02:21:44;15.40;99.90
12588;DHT22;6359;51.450;7.346;2022-07-23T02:24:10;15.30;99.90
12588;DHT22;6359;51.450;7.346;2022-07-23T02:26:38;15.30;99.90
12588;DHT22;6359;51.450;7.346;2022-07-23T02:29:04;15.20;99.90
12588;DHT22;6359;51.450;7.346;2022-07-23T02:31:33;15.20;99.90
12588;DHT22;6359;51.450;7.346;2022-07-23T02:34:00;15.20;99.90
12588;DHT22;6359;51.450;7.346;2022-07-23T02:36:28;15.20;99.90
12588;DHT22;6359;51.450;7.346;2022-07-23T02:38:55;15.30;99.90
12588;DHT22;6359;51.450;7.346;2022-07-23T02:41:22;15.20;99.90
12588;DHT22;6359;51.450;7.346;2022-07-23T02:43:49;15.20;99.90
12588;DHT22;6359;51.450;7.346;2022-07-23T02:46:16;15.10;99.90
12588;DHT22;6359;51.450;7.346;2022-07-23T02:48:45;15.10;99.90
12588;DHT22;6359;51.450;7.346;2022-07-23T02:51:12;15.00;99.90
12588;DHT22;6359;51.450;7.346;2022-07-23T02:53:38;15.00;99.90
12588;DHT22;6359;51.450;7.346;2022-07-23T02:56:05;14.90;99.90
12588;DHT22;6359;51.450;7.346;2022-07-23T02:58:32;14.90;99.90
12588;DHT22;6359;51.450;7.346;2022-07-23T03:00:59;14.80;99.90
12588;DHT22;6359;51.450;7.346;2022-07-23T03:03:26;14.70;99.90
12588;DHT22;6359;51.450;7.346;2022-07-23T03:05:55;14.90;99.90
12588;DHT22;6359;51.450;7.346;2022-07-23T03:08:22;14.90;99.90
12588;DHT22;6359;51.450;7.346;2022-07-23T03:10:48;14.90;99.90
12588;DHT22;6359;51.450;7.346;2022-07-23T03:13:15;15.00;99.90
12588;DHT22;6359;51.450;7.346;2022-07-23T03:15:42;15.10;99.90
12588;DHT22;6359;51.450;7.346;2022-07-23T03:18:09;15.00;99.90
12588;DHT22;6359;51.450;7.346;2022-07-23T03:20:36;15.10;99.90
12588;DHT22;6359;51.450;7.346;2022-07-23T03:23:04;15.20;99.90
12588;DHT22;6359;51.450;7.346;2022-07-23T03:25:31;15.20;99.90
12588;DHT22;6359;51.450;7.346;2022-07-23T03:27:58;14.90;99.90
12588;DHT22;6359;51.450;7.346;2022-07-23T03:30:25;14.80;99.90
12588;DHT22;6359;51.450;7.346;2022-07-23T03:32:52;14.80;99.90
12588;DHT22;6359;51.450;7.346;2022-07-23T03:35:19;15.00;99.90
12588;DHT22;6359;51.450;7.346;2022-07-23T03:37:46;15.10;99.90
12588;DHT22;6359;51.450;7.346;2022-07-23T03:40:14;15.20;99.90
12588;DHT22;6359;51.450;7.346;2022-07-23T03:42:41;15.30;99.90
12588;DHT22;6359;51.450;7.346;2022-07-23T03:45:09;15.30;99.90
12588;DHT22;6359;51.450;7.346;2022-07-23T03:47:36;15.40;99.90
12588;DHT22;6359;51.450;7.346;2022-07-23T03:50:07;15.50;99.90
12588;DHT22;6359;51.450;7.346;2022-07-23T03:52:36;15.60;99.90
12588;DHT22;6359;51.450;7.346;2022-07-23T03:55:04;15.50;99.90
12588;DHT22;6359;51.450;7.346;2022-07-23T03:57:33;15.30;99.90
12588;DHT22;6359;51.450;7.346;2022-07-23T03:59:59;15.20;99.90
12588;DHT22;6359;51.450;7.346;2022-07-23T04:02:26;15.10;99.90
12588;DHT22;6359;51.450;7.346;2022-07-23T04:04:53;15.00;99.90
12588;DHT22;6359;51.450;7.346;2022-07-23T04:07:20;15.00;99.90
12588;DHT22;6359;51.450;7.346;2022-07-23T04:09:47;15.00;99.90
12588;DHT22;6359;51.450;7.346;2022-07-23T04:12:15;15.00;99.90
12588;DHT22;6359;51.450;7.346;2022-07-23T04:14:43;15.00;99.90
12588;DHT22;6359;51.450;7.346;2022-07-23T04:17:10;15.00;99.90
12588;DHT22;6359;51.450;7.346;2022-07-23T04:19:37;15.00;99.90
12588;DHT22;6359;51.450;7.346;2022-07-23T04:22:07;15.00;99.90
12588;DHT22;6359;51.450;7.346;2022-07-23T04:24:34;15.00;99.90
12588;DHT22;6359;51.450;7.346;2022-07-23T04:27:01;15.10;99.90
12588;DHT22;6359;51.450;7.346;2022-07-23T04:29:29;15.10;99.90
12588;DHT22;6359;51.450;7.346;2022-07-23T04:31:57;15.10;99.90
12588;DHT22;6359;51.450;7.346;2022-07-23T04:34:24;15.10;99.90
12588;DHT22;6359;51.450;7.346;2022-07-23T04:36:52;15.10;99.90
12588;DHT22;6359;51.450;7.346;2022-07-23T04:39:19;15.10;99.90
12588;DHT22;6359;51.450;7.346;2022-07-23T04:41:46;15.20;99.90
12588;DHT22;6359;51.450;7.346;2022-07-23T04:44:13;15.20;99.90
12588;DHT22;6359;51.450;7.346;2022-07-23T04:46:40;15.20;99.90
12588;DHT22;6359;51.450;7.346;2022-07-23T04:49:08;15.30;99.90
12588;DHT22;6359;51.450;7.346;2022-07-23T04:51:36;15.30;99.90
12588;DHT22;6359;51.450;7.346;2022-07-23T04:54:03;15.30;99.90
12588;DHT22;6359;51.450;7.346;2022-07-23T04:56:30;15.30;99.90
12588;DHT22;6359;51.450;7.346;2022-07-23T04:58:56;15.30;99.90
12588;DHT22;6359;51.450;7.346;2022-07-23T05:01:23;15.30;99.90
12588;DHT22;6359;51.450;7.346;2022-07-23T05:03:50;15.30;99.90
12588;DHT22;6359;51.450;7.346;2022-07-23T05:06:18;15.30;99.90
12588;DHT22;6359;51.450;7.346;2022-07-23T05:08:45;15.20;99.90
12588;DHT22;6359;51.450;7.346;2022-07-23T05:11:12;15.30;99.90
12588;DHT22;6359;51.450;7.346;2022-07-23T05:13:39;15.30;99.90
12588;DHT22;6359;51.450;7.346;2022-07-23T05:16:06;15.30;99.90
12588;DHT22;6359;51.450;7.346;2022-07-23T05:18:33;15.30;99.90
12588;DHT22;6359;51.450;7.346;2022-07-23T05:21:00;15.30;99.90
12588;DHT22;6359;51.450;7.346;2022-07-23T05:23:28;15.30;99.90
12588;DHT22;6359;51.450;7.346;2022-07-23T05:25:55;15.40;99.90
12588;DHT22;6359;51.450;7.346;2022-07-23T05:28:22;15.50;99.90
12588;DHT22;6359;51.450;7.346;2022-07-23T05:30:49;15.60;99.90
12588;DHT22;6359;51.450;7.346;2022-07-23T05:33:18;15.70;99.90
12588;DHT22;6359;51.450;7.346;2022-07-23T05:35:45;15.90;99.90
12588;DHT22;6359;51.450;7.346;2022-07-23T05:38:12;16.00;99.90
12588;DHT22;6359;51.450;7.346;2022-07-23T05:40:41;16.20;99.90
12588;DHT22;6359;51.450;7.346;2022-07-23T05:43:08;16.00;99.90
12588;DHT22;6359;51.450;7.346;2022-07-23T05:45:34;16.00;99.90
12588;DHT22;6359;51.450;7.346;2022-07-23T05:48:01;16.30;99.90
12588;DHT22;6359;51.450;7.346;2022-07-23T05:50:28;16.40;99.90
12588;DHT22;6359;51.450;7.346;2022-07-23T05:52:55;16.40;99.90
12588;DHT22;6359;51.450;7.346;2022-07-23T05:55:22;16.30;99.90
12588;DHT22;6359;51.450;7.346;2022-07-23T05:57:50;16.30;99.90
12588;DHT22;6359;51.450;7.346;2022-07-23T06:00:17;16.30;99.90
12588;DHT22;6359;51.450;7.346;2022-07-23T06:02:44;16.30;99.90
12588;DHT22;6359;51.450;7.346;2022-07-23T06:05:11;16.30;99.90
12588;DHT22;6359;51.450;7.346;2022-07-23T06:07:38;16.30;99.90
12588;DHT22;6359;51.450;7.346;2022-07-23T06:10:06;16.30;99.90
12588;DHT22;6359;51.450;7.346;2022-07-23T06:12:33;16.40;99.90
12588;DHT22;6359;51.450;7.346;2022-07-23T06:15:02;16.60;99.90
12588;DHT22;6359;51.450;7.346;2022-07-23T06:17:29;16.80;99.90
12588;DHT22;6359;51.450;7.346;2022-07-23T06:19:56;17.00;99.90
12588;DHT22;6359;51.450;7.346;2022-07-23T06:22:23;17.00;99.90
12588;DHT22;6359;51.450;7.346;2022-07-23T06:24:51;17.00;99.90
12588;DHT22;6359;51.450;7.346;2022-07-23T06:27:18;16.90;99.90
12588;DHT22;6359;51.450;7.346;2022-07-23T06:29:45;17.10;99.90
12588;DHT22;6359;51.450;7.346;2022-07-23T06:32:13;17.50;99.90
12588;DHT22;6359;51.450;7.346;2022-07-23T06:34:40;17.50;99.90
12588;DHT22;6359;51.450;7.346;2022-07-23T06:37:07;17.60;99.90
12588;DHT22;6359;51.450;7.346;2022-07-23T06:39:34;17.60;99.90
12588;DHT22;6359;51.450;7.346;2022-07-23T06:42:01;17.70;99.90
12588;DHT22;6359;51.450;7.346;2022-07-23T06:44:28;17.90;99.90
12588;DHT22;6359;51.450;7.346;2022-07-23T06:46:55;18.10;99.90
12588;DHT22;6359;51.450;7.346;2022-07-23T06:49:23;18.20;99.90
12588;DHT22;6359;51.450;7.346;2022-07-23T06:51:50;18.20;99.90
12588;DHT22;6359;51.450;7.346;2022-07-23T06:54:17;18.20;99.90
12588;DHT22;6359;51.450;7.346;2022-07-23T06:56:44;18.20;99.90
12588;DHT22;6359;51.450;7.346;2022-07-23T06:59:11;18.20;99.90
12588;DHT22;6359;51.450;7.346;2022-07-23T07:01:38;18.10;99.90
12588;DHT22;6359;51.450;7.346;2022-07-23T07:04:05;18.10;99.90
12588;DHT22;6359;51.450;7.346;2022-07-23T07:06:33;18.20;99.90
12588;DHT22;6359;51.450;7.346;2022-07-23T07:09:00;18.20;99.90
12588;DHT22;6359;51.450;7.346;2022-07-23T07:11:27;19.00;99.90
12588;DHT22;6359;51.450;7.346;2022-07-23T07:13:54;19.30;99.90
12588;DHT22;6359;51.450;7.346;2022-07-23T07:16:21;19.10;99.90
12588;DHT22;6359;51.450;7.346;2022-07-23T07:18:48;19.10;99.90
12588;DHT22;6359;51.450;7.346;2022-07-23T07:21:15;19.10;99.90
12588;DHT22;6359;51.450;7.346;2022-07-23T07:23:43;19.00;99.90
12588;DHT22;6359;51.450;7.346;2022-07-23T07:26:10;18.60;99.90
12588;DHT22;6359;51.450;7.346;2022-07-23T07:28:37;18.70;99.90
12588;DHT22;6359;51.450;7.346;2022-07-23T07:31:04;19.40;99.90
12588;DHT22;6359;51.450;7.346;2022-07-23T07:33:31;21.00;99.90
12588;DHT22;6359;51.450;7.346;2022-07-23T07:35:58;22.30;99.90
12588;DHT22;6359;51.450;7.346;2022-07-23T07:38:26;24.00;99.90
12588;DHT22;6359;51.450;7.346;2022-07-23T07:40:54;24.60;99.90
12588;DHT22;6359;51.450;7.346;2022-07-23T07:43:21;25.50;99.90
12588;DHT22;6359;51.450;7.346;2022-07-23T07:45:48;26.20;99.90
12588;DHT22;6359;51.450;7.346;2022-07-23T07:48:15;25.50;99.90
12588;DHT22;6359;51.450;7.346;2022-07-23T07:50:42;26.20;99.90
12588;DHT22;6359;51.450;7.346;2022-07-23T07:53:09;27.40;99.90
12588;DHT22;6359;51.450;7.346;2022-07-23T07:55:36;27.00;99.90
12588;DHT22;6359;51.450;7.346;2022-07-23T07:58:04;26.40;99.90
12588;DHT22;6359;51.450;7.346;2022-07-23T08:00:31;25.60;99.90
12588;DHT22;6359;51.450;7.346;2022-07-23T08:02:58;25.60;99.90
12588;DHT22;6359;51.450;7.346;2022-07-23T08:05:26;26.20;99.90
12588;DHT22;6359;51.450;7.346;2022-07-23T08:07:55;27.10;99.90
12588;DHT22;6359;51.450;7.346;2022-07-23T08:10:22;28.90;99.90
12588;DHT22;6359;51.450;7.346;2022-07-23T08:12:51;29.00;99.90
12588;DHT22;6359;51.450;7.346;2022-07-23T08:15:21;28.00;99.90
12588;DHT22;6359;51.450;7.346;2022-07-23T08:17:48;27.20;99.90
12588;DHT22;6359;51.450;7.346;2022-07-23T08:20:17;26.60;99.90
12588;DHT22;6359;51.450;7.346;2022-07-23T08:22:47;26.10;99.90
12588;DHT22;6359;51.450;7.346;2022-07-23T08:25:14;25.50;99.90
12588;DHT22;6359;51.450;7.346;2022-07-23T08:27:41;24.50;99.90
12588;DHT22;6359;51.450;7.346;2022-07-23T08:30:08;24.10;99.90
12588;DHT22;6359;51.450;7.346;2022-07-23T08:32:52;24.40;99.90
12588;DHT22;6359;51.450;7.346;2022-07-23T08:35:24;24.60;99.90
12588;DHT22;6359;51.450;7.346;2022-07-23T08:37:51;25.30;99.90
12588;DHT22;6359;51.450;7.346;2022-07-23T08:40:19;26.40;99.90
12588;DHT22;6359;51.450;7.346;2022-07-23T08:42:48;25.80;99.90
12588;DHT22;6359;51.450;7.346;2022-07-23T08:45:17;25.00;99.90
12588;DHT22;6359;51.450;7.346;2022-07-23T08:47:45;24.50;99.90
12588;DHT22;6359;51.450;7.346;2022-07-23T08:50:13;25.60;99.90
12588;DHT22;6359;51.450;7.346;2022-07-23T08:52:40;26.90;99.90
12588;DHT22;6359;51.450;7.346;2022-07-23T08:55:08;28.10;99.90
12588;DHT22;6359;51.450;7.346;2022-07-23T08:57:35;28.30;99.90
12588;DHT22;6359;51.450;7.346;2022-07-23T09:00:03;27.80;99.90
12588;DHT22;6359;51.450;7.346;2022-07-23T09:02:31;26.20;99.90
12588;DHT22;6359;51.450;7.346;2022-07-23T09:04:58;25.30;99.90
12588;DHT22;6359;51.450;7.346;2022-07-23T09:07:26;25.20;99.90
12588;DHT22;6359;51.450;7.346;2022-07-23T09:10:06;25.30;99.90
12588;DHT22;6359;51.450;7.346;2022-07-23T09:12:33;24.80;99.90
12588;DHT22;6359;51.450;7.346;2022-07-23T09:15:04;24.80;99.90
12588;DHT22;6359;51.450;7.346;2022-07-23T09:17:37;26.00;99.90
12588;DHT22;6359;51.450;7.346;2022-07-23T09:20:09;25.60;99.90
12588;DHT22;6359;51.450;7.346;2022-07-23T09:22:38;25.70;99.90
12588;DHT22;6359;51.450;7.346;2022-07-23T09:25:08;25.20;99.90
12588;DHT22;6359;51.450;7.346;2022-07-23T09:27:53;25.40;99.90
12588;DHT22;6359;51.450;7.346;2022-07-23T09:30:20;26.10;99.90
12588;DHT22;6359;51.450;7.346;2022-07-23T09:33:06;26.30;99.90
12588;DHT22;6359;51.450;7.346;2022-07-23T09:35:48;26.70;99.90
12588;DHT22;6359;51.450;7.346;2022-07-23T09:38:17;28.30;99.90
12588;DHT22;6359;51.450;7.346;2022-07-23T09:40:45;28.80;99.90
12588;DHT22;6359;51.450;7.346;2022-07-23T09:43:12;29.60;99.90
12588;DHT22;6359;51.450;7.346;2022-07-23T09:45:39;29.60;99.90
12588;DHT22;6359;51.450;7.346;2022-07-23T09:48:14;29.90;99.90
12588;DHT22;6359;51.450;7.346;2022-07-23T09:50:43;29.90;99.90
12588;DHT22;6359;51.450;7.346;2022-07-23T09:53:10;29.90;99.90
12588;DHT22;6359;51.450;7.346;2022-07-23T09:55:51;30.30;99.90
12588;DHT22;6359;51.450;7.346;2022-07-23T09:58:21;30.00;99.90
12588;DHT22;6359;51.450;7.346;2022-07-23T10:00:51;29.50;99.90
12588;DHT22;6359;51.450;7.346;2022-07-23T10:03:19;28.40;99.90
12588;DHT22;6359;51.450;7.346;2022-07-23T10:05:47;27.70;99.90
12588;DHT22;6359;51.450;7.346;2022-07-23T10:08:18;27.70;99.90
12588;DHT22;6359;51.450;7.346;2022-07-23T10:10:46;28.40;99.90
12588;DHT22;6359;51.450;7.346;2022-07-23T10:13:15;28.50;99.90
12588;DHT22;6359;51.450;7.346;2022-07-23T10:16:00;29.00;99.90
12588;DHT22;6359;51.450;7.346;2022-07-23T10:18:28;29.00;99.90
12588;DHT22;6359;51.450;7.346;2022-07-23T10:20:56;28.50;99.90
12588;DHT22;6359;51.450;7.346;2022-07-23T10:23:28;29.40;99.90
12588;DHT22;6359;51.450;7.346;2022-07-23T10:26:03;29.90;99.90
12588;DHT22;6359;51.450;7.346;2022-07-23T10:28:51;30.00;99.90
12588;DHT22;6359;51.450;7.346;2022-07-23T10:31:34;30.10;99.90
12588;DHT22;6359;51.450;7.346;2022-07-23T10:34:11;30.00;99.90
12588;DHT22;6359;51.450;7.346;2022-07-23T10:36:44;30.60;99.50
12588;DHT22;6359;51.450;7.346;2022-07-23T10:39:17;30.40;99.90
12588;DHT22;6359;51.450;7.346;2022-07-23T10:41:45;30.30;99.90
12588;DHT22;6359;51.450;7.346;2022-07-23T10:44:15;30.40;99.90
12588;DHT22;6359;51.450;7.346;2022-07-23T10:46:56;30.40;98.40
12588;DHT22;6359;51.450;7.346;2022-07-23T10:49:40;30.10;99.00
12588;DHT22;6359;51.450;7.346;2022-07-23T10:52:22;30.00;99.90
12588;DHT22;6359;51.450;7.346;2022-07-23T10:54:51;29.80;99.90
12588;DHT22;6359;51.450;7.346;2022-07-23T10:57:19;29.40;99.90
12588;DHT22;6359;51.450;7.346;2022-07-23T11:00:14;29.10;99.90
12588;DHT22;6359;51.450;7.346;2022-07-23T11:02:44;29.20;99.90
12588;DHT22;6359;51.450;7.346;2022-07-23T11:05:13;29.50;99.80
12588;DHT22;6359;51.450;7.346;2022-07-23T11:10:55;29.20;99.90
12588;DHT22;6359;51.450;7.346;2022-07-23T11:13:31;28.90;99.90
12588;DHT22;6359;51.450;7.346;2022-07-23T11:16:08;29.20;99.40
12588;DHT22;6359;51.450;7.346;2022-07-23T11:19:03;28.80;98.20
12588;DHT22;6359;51.450;7.346;2022-07-23T11:21:50;29.00;99.90
12588;DHT22;6359;51.450;7.346;2022-07-23T11:24:22;28.80;99.70
12588;DHT22;6359;51.450;7.346;2022-07-23T11:27:07;28.70;99.90
12588;DHT22;6359;51.450;7.346;2022-07-23T11:29:41;28.60;99.90
12588;DHT22;6359;51.450;7.346;2022-07-23T11:32:23;28.30;99.90
12588;DHT22;6359;51.450;7.346;2022-07-23T11:34:51;27.90;99.90
12588;DHT22;6359;51.450;7.346;2022-07-23T11:37:36;27.70;99.90
12588;DHT22;6359;51.450;7.346;2022-07-23T11:40:07;27.70;99.90
12588;DHT22;6359;51.450;7.346;2022-07-23T11:42:36;27.50;99.90
12588;DHT22;6359;51.450;7.346;2022-07-23T11:45:06;27.70;99.90
12588;DHT22;6359;51.450;7.346;2022-07-23T11:47:34;27.50;99.90
12588;DHT22;6359;51.450;7.346;2022-07-23T11:50:05;27.40;99.90
12588;DHT22;6359;51.450;7.346;2022-07-23T11:52:33;27.30;99.90
12588;DHT22;6359;51.450;7.346;2022-07-23T11:55:02;27.20;99.90
12588;DHT22;6359;51.450;7.346;2022-07-23T11:57:31;26.70;99.80
12588;DHT22;6359;51.450;7.346;2022-07-23T12:00:02;26.20;99.90
12588;DHT22;6359;51.450;7.346;2022-07-23T12:02:30;25.90;99.90
12588;DHT22;6359;51.450;7.346;2022-07-23T12:04:58;26.00;99.90
12588;DHT22;6359;51.450;7.346;2022-07-23T12:07:30;26.40;99.90
12588;DHT22;6359;51.450;7.346;2022-07-23T12:09:59;26.60;99.90
12588;DHT22;6359;51.450;7.346;2022-07-23T12:12:27;26.80;99.90
12588;DHT22;6359;51.450;7.346;2022-07-23T12:14:55;26.90;99.90
12588;DHT22;6359;51.450;7.346;2022-07-23T12:17:28;26.70;99.90
12588;DHT22;6359;51.450;7.346;2022-07-23T12:19:59;26.70;99.90
12588;DHT22;6359;51.450;7.346;2022-07-23T12:22:34;27.00;99.90
12588;DHT22;6359;51.450;7.346;2022-07-23T12:25:04;27.20;99.90
12588;DHT22;6359;51.450;7.346;2022-07-23T12:27:32;27.60;99.90
12588;DHT22;6359;51.450;7.346;2022-07-23T12:29:59;27.90;99.90
12588;DHT22;6359;51.450;7.346;2022-07-23T12:32:43;27.90;99.90
12588;DHT22;6359;51.450;7.346;2022-07-23T12:35:12;27.30;99.90
12588;DHT22;6359;51.450;7.346;2022-07-23T12:37:41;26.60;99.90
12588;DHT22;6359;51.450;7.346;2022-07-23T12:40:23;26.50;99.90
12588;DHT22;6359;51.450;7.346;2022-07-23T12:42:54;26.30;99.90
12588;DHT22;6359;51.450;7.346;2022-07-23T12:45:21;26.00;99.90
12588;DHT22;6359;51.450;7.346;2022-07-23T12:48:03;26.30;99.90
12588;DHT22;6359;51.450;7.346;2022-07-23T12:50:42;26.10;99.90
12588;DHT22;6359;51.450;7.346;2022-07-23T12:53:12;25.60;99.90
12588;DHT22;6359;51.450;7.346;2022-07-23T12:55:40;25.00;99.90
12588;DHT22;6359;51.450;7.346;2022-07-23T12:58:10;24.80;99.90
12588;DHT22;6359;51.450;7.346;2022-07-23T13:00:55;25.40;99.90
12588;DHT22;6359;51.450;7.346;2022-07-23T13:03:25;26.00;99.90
12588;DHT22;6359;51.450;7.346;2022-07-23T13:05:54;26.50;99.90
12588;DHT22;6359;51.450;7.346;2022-07-23T13:08:22;26.70;99.90
12588;DHT22;6359;51.450;7.346;2022-07-23T13:10:50;26.90;99.90
12588;DHT22;6359;51.450;7.346;2022-07-23T13:13:20;26.60;99.90
12588;DHT22;6359;51.450;7.346;2022-07-23T13:15:47;26.50;99.90
12588;DHT22;6359;51.450;7.346;2022-07-23T13:18:14;26.50;99.90
12588;DHT22;6359;51.450;7.346;2022-07-23T13:20:42;26.10;99.90
12588;DHT22;6359;51.450;7.346;2022-07-23T13:23:11;26.00;99.90
12588;DHT22;6359;51.450;7.346;2022-07-23T13:25:38;26.00;99.90
12588;DHT22;6359;51.450;7.346;2022-07-23T13:28:05;25.90;99.90
12588;DHT22;6359;51.450;7.346;2022-07-23T13:30:32;25.70;99.90
12588;DHT22;6359;51.450;7.346;2022-07-23T13:32:59;25.30;99.90
12588;DHT22;6359;51.450;7.346;2022-07-23T13:35:26;25.10;99.90
12588;DHT22;6359;51.450;7.346;2022-07-23T13:37:53;25.10;99.90
12588;DHT22;6359;51.450;7.346;2022-07-23T13:40:21;25.00;99.90
12588;DHT22;6359;51.450;7.346;2022-07-23T13:42:48;25.50;99.90
12588;DHT22;6359;51.450;7.346;2022-07-23T13:45:15;25.90;99.90
12588;DHT22;6359;51.450;7.346;2022-07-23T13:47:42;26.40;99.90
12588;DHT22;6359;51.450;7.346;2022-07-23T13:50:09;26.40;99.90
12588;DHT22;6359;51.450;7.346;2022-07-23T13:52:36;26.50;99.90
12588;DHT22;6359;51.450;7.346;2022-07-23T13:55:05;26.80;99.90
12588;DHT22;6359;51.450;7.346;2022-07-23T13:57:34;26.90;99.90
12588;DHT22;6359;51.450;7.346;2022-07-23T14:00:02;27.00;99.90
12588;DHT22;6359;51.450;7.346;2022-07-23T14:02:29;27.10;99.90
12588;DHT22;6359;51.450;7.346;2022-07-23T14:04:56;26.80;99.90
12588;DHT22;6359;51.450;7.346;2022-07-23T14:07:23;26.30;99.90
12588;DHT22;6359;51.450;7.346;2022-07-23T14:09:50;26.00;99.90
12588;DHT22;6359;51.450;7.346;2022-07-23T14:12:17;25.70;99.90
12588;DHT22;6359;51.450;7.346;2022-07-23T14:14:45;25.80;99.90
12588;DHT22;6359;51.450;7.346;2022-07-23T14:17:13;25.50;99.90
12588;DHT22;6359;51.450;7.346;2022-07-23T14:19:40;25.60;99.90
12588;DHT22;6359;51.450;7.346;2022-07-23T14:22:07;25.80;99.90
12588;DHT22;6359;51.450;7.346;2022-07-23T14:24:34;26.20;99.90
12588;DHT22;6359;51.450;7.346;2022-07-23T14:27:02;26.60;99.90
12588;DHT22;6359;51.450;7.346;2022-07-23T14:29:30;26.90;99.90
12588;DHT22;6359;51.450;7.346;2022-07-23T14:31:58;26.90;99.90
12588;DHT22;6359;51.450;7.346;2022-07-23T14:34:26;27.00;99.90
12588;DHT22;6359;51.450;7.346;2022-07-23T14:36:53;27.10;99.90
12588;DHT22;6359;51.450;7.346;2022-07-23T14:39:20;27.20;99.90
12588;DHT22;6359;51.450;7.346;2022-07-23T14:41:47;27.10;99.90
12588;DHT22;6359;51.450;7.346;2022-07-23T14:44:14;27.10;99.90
12588;DHT22;6359;51.450;7.346;2022-07-23T14:46:41;27.20;99.90
12588;DHT22;6359;51.450;7.346;2022-07-23T14:49:10;26.80;99.90
12588;DHT22;6359;51.450;7.346;2022-07-23T14:51:37;26.40;99.90
12588;DHT22;6359;51.450;7.346;2022-07-23T14:54:04;26.10;99.90
12588;DHT22;6359;51.450;7.346;2022-07-23T14:56:32;25.70;99.90
12588;DHT22;6359;51.450;7.346;2022-07-23T14:58:59;25.50;99.90
12588;DHT22;6359;51.450;7.346;2022-07-23T15:01:26;25.40;99.90
12588;DHT22;6359;51.450;7.346;2022-07-23T15:03:53;25.20;99.90
12588;DHT22;6359;51.450;7.346;2022-07-23T15:06:21;25.20;99.90
12588;DHT22;6359;51.450;7.346;2022-07-23T15:08:48;25.60;99.90
12588;DHT22;6359;51.450;7.346;2022-07-23T15:11:15;25.60;99.90
12588;DHT22;6359;51.450;7.346;2022-07-23T15:13:42;25.70;99.90
12588;DHT22;6359;51.450;7.346;2022-07-23T15:16:09;25.90;99.90
12588;DHT22;6359;51.450;7.346;2022-07-23T15:18:36;26.20;99.90
12588;DHT22;6359;51.450;7.346;2022-07-23T15:21:04;26.30;99.90
12588;DHT22;6359;51.450;7.346;2022-07-23T15:23:32;26.20;99.90
12588;DHT22;6359;51.450;7.346;2022-07-23T15:26:00;26.50;99.90
12588;DHT22;6359;51.450;7.346;2022-07-23T15:28:27;26.70;99.90
12588;DHT22;6359;51.450;7.346;2022-07-23T15:30:54;26.80;99.90
12588;DHT22;6359;51.450;7.346;2022-07-23T15:33:21;27.00;99.90
12588;DHT22;6359;51.450;7.346;2022-07-23T15:35:48;26.80;99.40
12588;DHT22;6359;51.450;7.346;2022-07-23T15:38:15;26.60;99.40
12588;DHT22;6359;51.450;7.346;2022-07-23T15:40:44;26.30;99.90
12588;DHT22;6359;51.450;7.346;2022-07-23T15:43:11;26.00;99.90
12588;DHT22;6359;51.450;7.346;2022-07-23T15:45:39;26.00;99.90
12588;DHT22;6359;51.450;7.346;2022-07-23T15:48:06;26.00;99.90
12588;DHT22;6359;51.450;7.346;2022-07-23T15:50:33;25.80;99.90
12588;DHT22;6359;51.450;7.346;2022-07-23T15:53:00;25.80;99.90
12588;DHT22;6359;51.450;7.346;2022-07-23T15:55:27;26.10;99.90
12588;DHT22;6359;51.450;7.346;2022-07-23T15:57:56;26.20;99.90